Time;durP1;ratioP1;P1;durP2;ratioP2;P2;SDS_P1;SDS_P2;PMS_P1;PMS_P2;Temp;Humidity;BMP_temperature;BMP_pressure;BME280_temperature;BME280_humidity;BME280_pressure;Samples;Min_cycle;Max_cycle;Signal;HPM_P1;HPM_P2
2023/01/20 00:00:21;;;;;;;9.67;5.60;;;-0.90;99.90;;;-0.07;100.00;97566.63;5033961;28;20464;-82
2023/01/20 00:02:51;;;;;;;9.67;5.90;;;-0.90;99.90;;;-0.07;100.00;97564.84;5039358;28;20462;-81
2023/01/20 00:05:19;;;;;;;8.17;5.23;;;-0.80;99.90;;;-0.04;100.00;97564.59;5044005;28;20486;-81
2023/01/20 00:07:49;;;;;;;9.17;5.40;;;-0.70;99.90;;;-0.02;100.00;97562.69;5038504;28;20458;-81
2023/01/20 00:10:22;;;;;;;10.10;5.70;;;-0.70;99.90;;;0.00;100.00;97567.72;5040404;28;20473;-81
2023/01/20 00:12:52;;;;;;;7.80;4.90;;;-0.70;99.90;;;0.01;100.00;97569.31;5038335;28;20548;-81
2023/01/20 00:15:22;;;;;;;13.17;5.53;;;-0.60;99.90;;;0.03;100.00;97564.88;5039684;28;20460;-82
2023/01/20 00:17:51;;;;;;;12.57;5.63;;;-0.50;99.90;;;0.00;100.00;97565.94;5039347;28;21569;-82
2023/01/20 00:20:20;;;;;;;10.00;5.70;;;-0.70;99.90;;;0.03;100.00;97574.34;5038747;28;20495;-81
2023/01/20 00:22:51;;;;;;;9.37;4.50;;;-0.60;99.90;;;-0.02;100.00;97575.56;5038897;28;20494;-81
2023/01/20 00:25:22;;;;;;;10.37;5.60;;;-0.70;99.90;;;-0.01;100.00;97573.78;5038459;28;20453;-81
2023/01/20 00:27:52;;;;;;;6.60;4.80;;;-0.70;99.90;;;-0.03;100.00;97573.91;5038863;28;20907;-82
2023/01/20 00:30:21;;;;;;;8.60;5.50;;;-0.80;99.90;;;-0.04;100.00;97576.63;5037171;28;20555;-81
2023/01/20 00:32:51;;;;;;;10.17;4.90;;;-0.80;99.90;;;0.00;100.00;97571.06;5038610;28;20545;-81
2023/01/20 00:35:20;;;;;;;12.23;5.57;;;-0.70;99.90;;;0.03;100.00;97574.34;5037144;28;20502;-81
2023/01/20 00:37:51;;;;;;;9.93;5.50;;;-0.70;99.90;;;0.04;100.00;97576.75;5038030;28;20461;-81
2023/01/20 00:40:23;;;;;;;10.33;5.47;;;-0.60;99.90;;;0.05;100.00;97580.97;5040698;28;20490;-81
2023/01/20 00:42:52;;;;;;;14.13;5.37;;;-0.70;99.90;;;0.05;100.00;97580.16;5040862;28;20459;-82
2023/01/20 00:45:22;;;;;;;10.53;5.67;;;-0.70;99.90;;;0.05;100.00;97583.53;5038467;28;20600;-82
2023/01/20 00:47:52;;;;;;;8.80;4.60;;;-0.60;99.90;;;0.06;100.00;97584.34;5039393;28;20955;-81
2023/01/20 00:50:21;;;;;;;10.73;5.30;;;-0.60;99.90;;;0.05;100.00;97585.28;5039607;28;20550;-81
2023/01/20 00:52:51;;;;;;;8.77;4.40;;;-0.50;99.90;;;0.03;100.00;97585.44;5038938;28;20468;-81
2023/01/20 00:55:22;;;;;;;6.23;4.20;;;-0.50;99.90;;;-0.01;100.00;97594.34;5039249;28;20471;-81
2023/01/20 00:57:51;;;;;;;18.40;4.77;;;-0.60;99.90;;;-0.03;100.00;97593.66;5037496;28;20461;-82
2023/01/20 01:00:22;;;;;;;11.63;5.37;;;-0.60;99.90;;;-0.11;100.00;97601.22;5038825;28;20461;-80
2023/01/20 01:02:52;;;;;;;6.93;4.50;;;-0.80;99.90;;;-0.14;100.00;97601.50;5039820;28;20471;-81
2023/01/20 01:05:23;;;;;;;8.80;5.77;;;-0.90;99.90;;;-0.15;100.00;97602.44;5039211;28;20596;-82
2023/01/20 01:07:53;;;;;;;8.50;3.97;;;-0.90;99.90;;;-0.20;100.00;97607.13;5038338;28;20556;-81
2023/01/20 01:10:25;;;;;;;8.53;5.17;;;-1.00;99.90;;;-0.22;100.00;97603.91;5033435;28;20500;-81
2023/01/20 01:12:55;;;;;;;9.53;4.53;;;-0.90;99.90;;;-0.28;100.00;97599.28;5034956;28;20537;-81
2023/01/20 01:15:23;;;;;;;7.40;4.60;;;-1.00;99.90;;;-0.28;100.00;97609.56;5035731;28;20528;-81
2023/01/20 01:17:54;;;;;;;8.00;4.40;;;-1.10;99.90;;;-0.29;100.00;97618.19;5036219;28;20462;-81
2023/01/20 01:20:24;;;;;;;7.10;4.80;;;-1.10;99.90;;;-0.25;100.00;97622.97;5039245;28;20473;-81
2023/01/20 01:22:53;;;;;;;6.33;4.87;;;-1.00;99.90;;;-0.29;100.00;97634.44;5035300;28;20467;-81
2023/01/20 01:25:24;;;;;;;7.83;5.03;;;-1.10;99.90;;;-0.31;100.00;97635.50;5035213;28;20490;-81
2023/01/20 01:27:53;;;;;;;6.30;4.37;;;-1.10;99.90;;;-0.33;100.00;97637.38;5037919;28;21241;-81
2023/01/20 01:30:23;;;;;;;7.47;4.33;;;-1.10;99.90;;;-0.38;100.00;97645.47;5036047;28;20497;-81
2023/01/20 01:32:53;;;;;;;10.50;4.80;;;-1.20;99.90;;;-0.38;100.00;97640.31;5034556;28;20550;-81
2023/01/20 01:35:22;;;;;;;7.10;4.13;;;-1.20;99.90;;;-0.42;100.00;97643.31;5036413;28;20464;-81
2023/01/20 01:37:53;;;;;;;11.00;4.00;;;-1.30;99.90;;;-0.42;100.00;97645.88;5036904;28;20481;-81
2023/01/20 01:40:24;;;;;;;7.40;4.10;;;-1.10;99.90;;;-0.47;100.00;97651.38;5037627;28;20464;-81
2023/01/20 01:42:54;;;;;;;5.00;3.87;;;-1.20;99.90;;;-0.52;100.00;97649.19;5034673;28;20560;-82
2023/01/20 01:45:28;;;;;;;6.20;4.43;;;-1.30;99.90;;;-0.53;100.00;97650.16;5036710;28;20528;-81
2023/01/20 01:48:09;;;;;;;5.17;4.40;;;-1.40;99.90;;;-0.58;100.00;97659.97;5034441;28;20487;-81
2023/01/20 01:50:44;;;;;;;5.67;4.20;;;-1.40;99.90;;;-0.56;100.00;97657.28;5037348;28;20557;-82
2023/01/20 01:53:15;;;;;;;8.10;4.77;;;-1.30;99.90;;;-0.62;100.00;97650.06;5036668;28;20484;-81
2023/01/20 01:55:54;;;;;;;8.10;4.67;;;-1.30;99.90;;;-0.68;100.00;97659.09;5035302;28;20512;-81
2023/01/20 01:58:32;;;;;;;7.70;4.63;;;-1.50;99.90;;;-0.70;100.00;97660.19;5037844;28;20551;-81
2023/01/20 02:01:02;;;;;;;9.33;5.73;;;-1.60;99.90;;;-0.76;100.00;97653.78;5039310;28;20540;-81
2023/01/20 02:03:42;;;;;;;6.90;4.83;;;-1.60;99.90;;;-0.77;100.00;97664.19;5038689;28;20498;-81
2023/01/20 02:06:12;;;;;;;10.33;5.43;;;-1.60;99.90;;;-0.76;100.00;97668.38;5037516;28;20520;-81
2023/01/20 02:08:43;;;;;;;9.10;4.90;;;-1.50;99.90;;;-0.74;100.00;97667.31;5035597;28;20535;-81
2023/01/20 02:11:14;;;;;;;12.00;5.97;;;-1.50;99.90;;;-0.77;100.00;97659.88;5038619;28;20496;-81
2023/01/20 02:13:45;;;;;;;6.47;4.33;;;-1.50;99.90;;;-0.77;100.00;97667.56;5036375;28;20499;-81
2023/01/20 02:16:23;;;;;;;8.70;5.40;;;-1.50;99.90;;;-0.77;100.00;97665.00;5036617;28;20973;-81
2023/01/20 02:19:13;;;;;;;5.90;4.20;;;-1.40;99.90;;;-0.82;100.00;97672.25;5037402;28;20471;-80
2023/01/20 02:22:14;;;;;;;7.57;4.47;;;-1.60;99.90;;;-0.86;100.00;97676.00;5036827;28;20927;-81
2023/01/20 02:25:23;;;;;;;7.13;4.53;;;-1.70;99.90;;;-0.96;100.00;97674.31;5036761;28;20525;-82
2023/01/20 02:28:42;;;;;;;15.03;4.93;;;-1.80;99.90;;;-1.03;100.00;97679.94;5034858;28;20464;-82
2023/01/20 02:31:57;;;;;;;4.50;3.90;;;-1.90;99.90;;;-1.00;100.00;97684.00;5038534;28;20497;-82
2023/01/20 02:34:32;;;;;;;10.23;5.53;;;-1.80;99.90;;;-1.02;100.00;97684.16;5003234;28;20468;-81
2023/01/20 02:37:13;;;;;;;8.50;5.20;;;-1.80;99.90;;;-1.01;100.00;97693.44;5039028;28;20459;-81
2023/01/20 02:39:56;;;;;;;6.93;4.60;;;-1.80;99.90;;;-1.04;100.00;97690.31;5037138;28;20492;-81
2023/01/20 02:42:38;;;;;;;9.00;4.90;;;-1.80;99.90;;;-1.07;100.00;97695.69;5033232;28;20465;-81
2023/01/20 02:45:19;;;;;;;5.00;3.97;;;-1.90;99.90;;;-1.08;100.00;97692.31;5033951;28;21270;-81
2023/01/20 02:47:57;;;;;;;6.43;5.10;;;-1.90;99.90;;;-1.09;100.00;97695.03;5033344;28;20462;-81
2023/01/20 02:50:40;;;;;;;6.40;4.60;;;-1.90;99.90;;;-1.09;100.00;97689.91;5033432;28;20500;-82
2023/01/20 02:53:14;;;;;;;5.97;4.80;;;-1.80;99.90;;;-1.19;100.00;97694.13;5034341;28;20497;-81
2023/01/20 02:55:48;;;;;;;10.40;4.90;;;-1.90;99.90;;;-1.20;100.00;97697.63;5033093;28;20465;-82
2023/01/20 02:58:27;;;;;;;8.10;4.27;;;-1.90;99.90;;;-1.16;100.00;97696.44;5033887;28;20460;-81
2023/01/20 03:01:02;;;;;;;16.20;4.80;;;-1.80;99.90;;;-1.19;100.00;97701.84;5032284;28;20464;-81
2023/01/20 03:03:38;;;;;;;6.83;4.67;;;-1.80;99.90;;;-1.22;100.00;97705.47;5034552;28;20493;-82
2023/01/20 03:06:16;;;;;;;13.47;5.60;;;-1.80;99.90;;;-1.29;100.00;97701.75;5032999;28;20479;-81
2023/01/20 03:08:51;;;;;;;7.47;4.90;;;-2.00;99.90;;;-1.30;100.00;97712.13;5035575;28;22084;-81
2023/01/20 03:11:21;;;;;;;5.87;4.30;;;-2.00;99.90;;;-1.29;100.00;97716.31;5035400;28;20602;-81
2023/01/20 03:13:58;;;;;;;11.03;4.47;;;-2.00;99.90;;;-1.30;100.00;97715.50;5031358;28;20509;-81
2023/01/20 03:16:29;;;;;;;9.73;5.70;;;-1.90;99.90;;;-1.33;100.00;97712.38;5033107;28;20490;-81
2023/01/20 03:18:59;;;;;;;7.53;4.90;;;-2.00;99.90;;;-1.40;100.00;97722.28;5035161;28;20461;-81
2023/01/20 03:21:32;;;;;;;5.63;4.03;;;-2.10;99.90;;;-1.40;100.00;97727.44;5035086;28;21073;-81
2023/01/20 03:24:04;;;;;;;7.57;4.40;;;-2.10;99.90;;;-1.38;100.00;97724.72;5032984;28;20986;-82
2023/01/20 03:26:34;;;;;;;7.10;4.10;;;-2.20;99.90;;;-1.39;100.00;97729.06;5034967;28;20467;-81
2023/01/20 03:29:08;;;;;;;8.87;4.97;;;-2.20;99.90;;;-1.42;100.00;97731.06;5032192;28;21119;-81
2023/01/20 03:31:43;;;;;;;5.80;4.63;;;-2.20;99.90;;;-1.43;100.00;97747.34;5032798;28;21101;-81
2023/01/20 03:34:18;;;;;;;8.00;4.50;;;-2.30;99.90;;;-1.43;100.00;97742.22;5032390;28;20481;-81
2023/01/20 03:36:52;;;;;;;18.53;4.50;;;-2.20;99.90;;;-1.48;100.00;97747.72;5031955;28;20453;-81
2023/01/20 03:39:23;;;;;;;9.10;4.87;;;-2.30;99.90;;;-1.52;100.00;97749.69;5033424;28;20963;-81
2023/01/20 03:42:07;;;;;;;4.27;3.40;;;-2.30;99.90;;;-1.53;100.00;97753.19;5035873;28;20475;-81
2023/01/20 03:44:59;;;;;;;7.97;4.43;;;-2.30;99.90;;;-1.55;100.00;97744.81;5032681;28;20909;-81
2023/01/20 03:47:51;;;;;;;6.23;4.07;;;-2.40;99.90;;;-1.58;100.00;97757.88;5034159;28;20877;-79
2023/01/20 03:50:36;;;;;;;8.70;4.67;;;-2.40;99.90;;;-1.53;100.00;97758.31;5032623;28;20587;-81
2023/01/20 03:53:25;;;;;;;5.63;4.13;;;-2.40;99.90;;;-1.50;100.00;97759.03;5033638;28;20475;-81
2023/01/20 03:56:04;;;;;;;5.90;4.43;;;-2.30;99.90;;;-1.53;100.00;97757.53;5036732;28;20460;-82
2023/01/20 03:58:37;;;;;;;5.17;4.20;;;-2.30;99.90;;;-1.50;100.00;97759.03;5036519;28;20552;-82
2023/01/20 04:01:11;;;;;;;8.03;3.93;;;-2.30;99.90;;;-1.50;100.00;97761.59;5037454;28;20460;-81
2023/01/20 04:03:51;;;;;;;10.23;5.57;;;-2.30;99.90;;;-1.52;100.00;97770.19;5038251;28;20559;-82
2023/01/20 04:06:25;;;;;;;8.53;4.17;;;-2.30;99.90;;;-1.50;100.00;97769.28;5034676;28;20998;-81
2023/01/20 04:09:02;;;;;;;4.77;3.57;;;-2.30;99.90;;;-1.51;100.00;97773.59;5035595;28;20483;-81
2023/01/20 04:11:31;;;;;;;5.67;4.37;;;-2.30;99.90;;;-1.58;100.00;97772.44;5035206;28;20505;-82
2023/01/20 04:14:02;;;;;;;5.40;4.63;;;-2.40;99.90;;;-1.54;100.00;97777.22;5035896;28;20465;-81
2023/01/20 04:16:31;;;;;;;6.80;4.60;;;-2.30;99.90;;;-1.58;100.00;97778.38;5032524;28;20981;-81
2023/01/20 04:19:02;;;;;;;7.00;4.13;;;-2.30;99.90;;;-1.54;100.00;97774.66;5033637;28;20472;-81
2023/01/20 04:21:35;;;;;;;5.70;3.80;;;-2.30;99.90;;;-1.48;100.00;97775.91;5038560;28;20452;-81
2023/01/20 04:24:15;;;;;;;7.40;4.43;;;-2.20;99.90;;;-1.47;100.00;97777.53;5033687;28;20977;-81
2023/01/20 04:26:45;;;;;;;7.27;3.90;;;-2.30;99.90;;;-1.46;100.00;97771.50;5036053;28;20544;-81
2023/01/20 04:29:14;;;;;;;6.73;4.33;;;-2.20;99.90;;;-1.44;100.00;97776.47;5036989;28;20463;-81
2023/01/20 04:31:43;;;;;;;11.77;4.30;;;-2.10;99.90;;;-1.46;100.00;97783.50;5037338;28;21005;-81
2023/01/20 04:34:15;;;;;;;5.10;3.97;;;-2.10;99.90;;;-1.45;100.00;97780.78;5024781;28;20473;-81
2023/01/20 04:36:45;;;;;;;10.73;4.73;;;-2.10;99.90;;;-1.44;100.00;97779.06;5035208;28;20462;-81
2023/01/20 04:39:17;;;;;;;7.90;4.70;;;-2.20;99.90;;;-1.45;100.00;97779.97;5036209;28;20993;-81
2023/01/20 04:41:48;;;;;;;6.87;4.17;;;-2.20;99.90;;;-1.41;100.00;97787.31;5037340;28;20464;-82
2023/01/20 04:44:16;;;;;;;8.17;4.70;;;-2.20;99.90;;;-1.38;100.00;97787.06;5034010;28;20493;-81
2023/01/20 04:46:46;;;;;;;8.33;4.53;;;-2.10;99.90;;;-1.39;100.00;97789.78;5037723;28;21005;-82
2023/01/20 04:49:16;;;;;;;10.00;4.67;;;-2.20;99.90;;;-1.40;100.00;97788.97;5038536;28;20468;-82
2023/01/20 04:51:45;;;;;;;7.70;4.53;;;-2.20;99.90;;;-1.35;100.00;97796.28;5039919;28;20501;-82
2023/01/20 04:54:17;;;;;;;8.23;5.17;;;-2.00;99.90;;;-1.34;100.00;97792.78;5036601;28;20485;-82
2023/01/20 04:56:49;;;;;;;9.00;5.60;;;-2.20;99.90;;;-1.32;100.00;97798.63;5037845;28;20544;-81
2023/01/20 04:59:20;;;;;;;6.57;4.43;;;-2.10;99.90;;;-1.30;100.00;97794.19;5035794;28;20563;-81
2023/01/20 05:01:50;;;;;;;9.43;5.23;;;-2.10;99.90;;;-1.29;100.00;97803.50;5038819;28;20475;-81
2023/01/20 05:04:19;;;;;;;7.40;4.20;;;-2.00;99.90;;;-1.29;100.00;97811.19;5037805;28;20467;-81
2023/01/20 05:06:49;;;;;;;9.53;4.50;;;-2.10;99.90;;;-1.29;100.00;97806.06;5036391;28;20461;-80
2023/01/20 05:09:21;;;;;;;9.60;4.80;;;-2.00;99.90;;;-1.28;100.00;97810.25;5038844;28;20457;-81
2023/01/20 05:11:51;;;;;;;7.50;4.87;;;-2.00;99.90;;;-1.29;100.00;97812.03;5039398;28;20876;-81
2023/01/20 05:14:21;;;;;;;5.90;4.03;;;-2.00;99.90;;;-1.29;100.00;97806.06;5037209;28;20465;-81
2023/01/20 05:16:50;;;;;;;6.60;4.43;;;-2.00;99.90;;;-1.30;100.00;97810.38;5041187;28;20540;-81
2023/01/20 05:19:20;;;;;;;4.73;4.10;;;-2.10;99.90;;;-1.36;100.00;97813.44;5035341;28;20531;-81
2023/01/20 05:21:50;;;;;;;5.47;4.20;;;-2.10;99.90;;;-1.36;100.00;97810.03;5036035;28;20473;-81
2023/01/20 05:24:21;;;;;;;7.30;4.00;;;-2.10;99.90;;;-1.41;100.00;97817.25;5036636;28;20500;-84
2023/01/20 05:26:50;;;;;;;7.20;4.57;;;-2.20;99.90;;;-1.40;100.00;97816.34;5041211;28;20687;-81
2023/01/20 05:29:20;;;;;;;5.63;4.10;;;-2.20;99.90;;;-1.41;100.00;97814.69;5036844;28;20934;-81
2023/01/20 05:31:49;;;;;;;10.17;4.27;;;-2.20;99.90;;;-1.43;100.00;97814.00;5034459;28;21168;-81
2023/01/20 05:34:20;;;;;;;12.60;4.83;;;-2.20;99.90;;;-1.45;100.00;97818.44;5034769;28;20493;-82
2023/01/20 05:36:53;;;;;;;10.43;4.60;;;-2.20;99.90;;;-1.51;100.00;97822.28;5031769;28;20494;-81
2023/01/20 05:39:24;;;;;;;9.50;5.33;;;-2.30;99.90;;;-1.50;100.00;97821.38;5038692;28;20530;-81
2023/01/20 05:41:54;;;;;;;8.60;4.47;;;-2.30;99.90;;;-1.50;100.00;97834.19;5042310;28;20458;-82
2023/01/20 05:44:25;;;;;;;9.80;4.30;;;-2.30;99.90;;;-1.50;100.00;97828.22;5040462;28;20472;-80
2023/01/20 05:46:53;;;;;;;6.27;4.17;;;-2.20;99.90;;;-1.51;100.00;97829.97;5041393;28;20992;-80
2023/01/20 05:49:22;;;;;;;5.73;3.70;;;-2.30;99.90;;;-1.53;100.00;97837.78;5042338;28;20465;-80
2023/01/20 05:51:52;;;;;;;5.67;3.47;;;-2.30;99.90;;;-1.56;100.00;97845.69;5040219;28;20577;-80
2023/01/20 05:54:22;;;;;;;13.70;4.40;;;-2.40;99.90;;;-1.66;100.00;97842.22;5040764;28;20497;-80
2023/01/20 05:56:53;;;;;;;7.40;4.00;;;-2.60;99.90;;;-1.68;100.00;97843.25;5040412;28;20466;-81
2023/01/20 05:59:24;;;;;;;5.03;3.80;;;-2.60;99.90;;;-1.69;100.00;97849.31;5040752;28;20880;-80
2023/01/20 06:01:53;;;;;;;5.47;3.87;;;-2.60;99.90;;;-1.78;100.00;97853.41;5039769;28;20493;-80
2023/01/20 06:04:25;;;;;;;5.87;4.17;;;-2.60;99.90;;;-1.74;100.00;97861.66;5039990;28;20495;-80
2023/01/20 06:06:54;;;;;;;5.90;4.03;;;-2.60;99.90;;;-1.74;100.00;97865.06;5039296;28;20623;-80
2023/01/20 06:09:25;;;;;;;4.20;3.70;;;-2.60;99.90;;;-1.81;100.00;97865.63;5040784;28;20500;-80
2023/01/20 06:11:56;;;;;;;6.10;4.03;;;-2.60;99.90;;;-1.85;100.00;97875.28;5036268;28;20504;-80
2023/01/20 06:14:26;;;;;;;9.93;4.20;;;-2.60;99.90;;;-1.87;100.00;97877.13;5038037;28;20461;-80
2023/01/20 06:16:55;;;;;;;10.17;4.97;;;-2.60;99.90;;;-1.89;100.00;97879.00;5038284;28;20465;-80
2023/01/20 06:19:25;;;;;;;6.00;4.37;;;-2.70;99.90;;;-1.86;100.00;97877.94;5038697;28;20470;-80
2023/01/20 06:21:55;;;;;;;7.93;4.03;;;-2.70;99.90;;;-1.97;100.00;97880.47;5037360;28;20526;-80
2023/01/20 06:24:27;;;;;;;6.37;4.40;;;-2.80;99.90;;;-2.01;100.00;97886.78;5041505;28;20496;-80
2023/01/20 06:26:58;;;;;;;12.13;4.97;;;-2.90;99.90;;;-2.11;100.00;97889.19;5039702;28;20508;-80
2023/01/20 06:29:26;;;;;;;9.87;4.40;;;-3.00;99.90;;;-2.10;100.00;97901.06;5041069;28;20508;-81
2023/01/20 06:31:57;;;;;;;6.90;4.70;;;-3.00;99.90;;;-2.11;100.00;97901.97;5041472;28;21006;-80
2023/01/20 06:34:28;;;;;;;5.47;4.43;;;-2.90;99.90;;;-2.07;100.00;97904.22;5040432;28;20466;-80
2023/01/20 06:36:58;;;;;;;9.00;5.10;;;-2.90;99.90;;;-2.03;100.00;97902.25;5039795;28;20471;-80
2023/01/20 06:39:29;;;;;;;10.73;4.60;;;-2.90;99.90;;;-2.03;100.00;97903.06;5041208;28;20496;-80
2023/01/20 06:42:00;;;;;;;8.83;4.47;;;-2.90;99.90;;;-2.04;100.00;97900.59;5039464;28;20460;-80
2023/01/20 06:44:30;;;;;;;8.50;4.30;;;-2.90;99.90;;;-2.05;100.00;97897.22;5040310;28;21044;-80
2023/01/20 06:47:00;;;;;;;7.77;4.30;;;-2.80;99.90;;;-2.03;100.00;97902.25;5039228;28;20873;-80
2023/01/20 06:49:32;;;;;;;5.90;4.07;;;-2.80;99.90;;;-2.11;100.00;97905.38;5039986;28;20486;-80
2023/01/20 06:52:01;;;;;;;8.10;4.63;;;-3.00;99.90;;;-2.23;100.00;97905.44;5039547;28;20486;-80
2023/01/20 06:54:32;;;;;;;9.83;5.30;;;-3.10;99.90;;;-2.23;100.00;97910.56;5038746;28;20471;-80
2023/01/20 06:57:03;;;;;;;10.90;5.37;;;-3.10;99.90;;;-2.23;100.00;97915.69;5039301;28;20489;-80
2023/01/20 06:59:32;;;;;;;9.00;4.93;;;-3.10;99.90;;;-2.26;100.00;97921.03;5037155;28;20555;-80
2023/01/20 07:02:02;;;;;;;9.10;4.90;;;-3.10;99.90;;;-2.24;100.00;97925.13;5038487;28;20466;-80
2023/01/20 07:04:32;;;;;;;6.70;4.13;;;-3.00;99.90;;;-2.18;100.00;97931.53;5040049;28;20466;-80
2023/01/20 07:07:03;;;;;;;9.43;4.50;;;-3.00;99.90;;;-2.17;100.00;97935.72;5039230;28;20480;-80
2023/01/20 07:09:34;;;;;;;6.60;4.43;;;-2.90;99.90;;;-2.25;100.00;97938.00;5038825;28;20855;-80
2023/01/20 07:12:04;;;;;;;12.63;5.70;;;-3.10;99.90;;;-2.29;100.00;97937.41;5039412;28;21007;-80
2023/01/20 07:14:34;;;;;;;7.90;4.20;;;-3.00;99.90;;;-2.27;100.00;97940.69;5038376;28;20490;-80
2023/01/20 07:17:05;;;;;;;6.47;4.70;;;-3.10;99.90;;;-2.28;100.00;97946.75;5037741;28;20968;-79
2023/01/20 07:19:35;;;;;;;6.60;4.13;;;-3.10;99.90;;;-2.28;100.00;97941.63;5039525;28;20516;-80
2023/01/20 07:22:06;;;;;;;9.30;4.87;;;-3.10;99.90;;;-2.29;100.00;97946.88;5037438;28;20478;-80
2023/01/20 07:24:37;;;;;;;8.50;4.87;;;-3.10;99.90;;;-2.26;100.00;97946.63;5040559;28;20539;-80
2023/01/20 07:27:07;;;;;;;7.53;4.67;;;-3.10;99.90;;;-2.27;100.00;97952.69;5039499;28;20526;-80
2023/01/20 07:29:37;;;;;;;9.40;5.30;;;-3.10;99.90;;;-2.33;100.00;97955.69;5021683;28;20462;-80
2023/01/20 07:32:06;;;;;;;8.60;4.60;;;-3.20;99.90;;;-2.31;100.00;97958.94;5036585;28;20557;-80
2023/01/20 07:34:37;;;;;;;8.07;5.27;;;-3.20;99.90;;;-2.34;100.00;97959.16;5036897;28;20551;-80
2023/01/20 07:37:06;;;;;;;7.13;4.57;;;-3.10;99.90;;;-2.35;100.00;97970.31;5037619;28;20476;-80
2023/01/20 07:39:38;;;;;;;7.07;4.77;;;-3.10;99.90;;;-2.34;100.00;97969.41;5036965;28;20468;-80
2023/01/20 07:42:08;;;;;;;9.20;5.63;;;-3.10;99.90;;;-2.31;100.00;97969.19;5036430;28;20485;-80
2023/01/20 07:44:37;;;;;;;5.80;4.33;;;-3.10;99.90;;;-2.28;100.00;97968.97;5037526;28;21002;-80
2023/01/20 07:47:08;;;;;;;7.30;4.40;;;-3.10;99.90;;;-2.26;100.00;97973.06;5037328;28;20802;-80
2023/01/20 07:49:38;;;;;;;9.00;4.73;;;-3.10;99.90;;;-2.24;100.00;97971.19;5039588;28;20467;-80
2023/01/20 07:52:08;;;;;;;9.13;4.90;;;-3.00;99.90;;;-2.22;100.00;97974.44;5037573;28;21434;-80
2023/01/20 07:54:39;;;;;;;5.57;4.60;;;-2.90;99.90;;;-2.19;100.00;97979.38;5039331;28;20470;-80
2023/01/20 07:57:09;;;;;;;8.70;3.80;;;-2.90;99.90;;;-2.19;100.00;97983.69;5038413;28;20488;-80
2023/01/20 07:59:39;;;;;;;8.70;4.60;;;-2.90;99.90;;;-2.16;100.00;97983.47;5040445;28;20967;-80
2023/01/20 08:02:10;;;;;;;8.63;5.00;;;-2.90;99.90;;;-2.14;100.00;97986.72;5037778;28;20559;-80
2023/01/20 08:04:40;;;;;;;11.23;5.50;;;-2.80;99.90;;;-2.10;100.00;97990.69;5039312;28;20463;-80
2023/01/20 08:07:11;;;;;;;6.63;4.30;;;-2.90;99.90;;;-2.08;100.00;97988.81;5037459;28;20465;-80
2023/01/20 08:09:42;;;;;;;12.00;4.97;;;-2.70;99.90;;;-2.07;100.00;97993.03;5038520;28;20524;-80
2023/01/20 08:12:12;;;;;;;6.70;4.63;;;-2.90;99.90;;;-2.07;100.00;97988.72;5036712;28;20470;-80
2023/01/20 08:14:41;;;;;;;7.90;5.50;;;-2.90;99.90;;;-2.07;100.00;97993.03;5037592;28;20508;-80
2023/01/20 08:17:10;;;;;;;6.80;5.10;;;-2.90;99.90;;;-2.03;100.00;97994.44;5038184;28;20548;-80
2023/01/20 08:19:39;;;;;;;11.20;6.17;;;-2.80;99.90;;;-2.05;100.00;97999.66;5036680;28;20472;-80
2023/01/20 08:22:08;;;;;;;9.40;5.30;;;-2.80;99.90;;;-2.05;100.00;98001.44;5039137;28;20468;-80
2023/01/20 08:24:37;;;;;;;9.70;4.63;;;-2.70;99.90;;;-2.05;100.00;98006.56;5039162;28;20521;-80
2023/01/20 08:27:08;;;;;;;5.97;4.33;;;-2.80;99.90;;;-2.01;100.00;98015.63;5040582;28;20495;-80
2023/01/20 08:29:39;;;;;;;7.90;4.70;;;-2.80;99.90;;;-2.01;100.00;98007.94;5038686;28;20845;-80
2023/01/20 08:32:09;;;;;;;9.70;4.80;;;-2.80;99.90;;;-2.02;100.00;98008.91;5040335;28;20494;-80
2023/01/20 08:34:39;;;;;;;13.00;4.87;;;-2.80;99.90;;;-2.04;100.00;98016.69;5041020;28;20484;-80
2023/01/20 08:37:09;;;;;;;13.17;5.00;;;-2.70;99.90;;;-2.05;100.00;98021.94;5043162;28;20472;-80
2023/01/20 08:39:39;;;;;;;8.67;5.53;;;-2.90;99.90;;;-2.02;100.00;98021.72;5041742;28;20564;-80
2023/01/20 08:42:10;;;;;;;9.83;5.37;;;-2.80;99.90;;;-2.06;100.00;98025.41;5040337;28;20485;-80
2023/01/20 08:44:40;;;;;;;7.57;4.97;;;-2.90;99.90;;;-1.98;100.00;98030.00;5039623;28;20483;-81
2023/01/20 08:47:09;;;;;;;7.80;4.77;;;-2.80;99.90;;;-1.95;100.00;98029.78;5040566;28;20480;-80
2023/01/20 08:49:39;;;;;;;7.77;5.10;;;-2.70;99.90;;;-1.94;100.00;98029.63;5042137;28;20478;-80
2023/01/20 08:52:09;;;;;;;8.17;5.47;;;-2.70;99.90;;;-1.93;100.00;98030.47;5042015;28;20465;-80
2023/01/20 08:54:40;;;;;;;6.73;5.00;;;-2.70;99.90;;;-1.92;100.00;98038.06;5041415;28;20575;-80
2023/01/20 08:57:11;;;;;;;7.80;5.03;;;-2.70;99.90;;;-1.93;100.00;98040.72;5042014;28;20862;-80
2023/01/20 08:59:41;;;;;;;9.23;5.40;;;-2.70;99.90;;;-1.92;100.00;98040.63;5041809;28;21022;-80
2023/01/20 09:02:10;;;;;;;11.10;4.87;;;-2.70;99.90;;;-1.89;100.00;98037.00;5040447;28;20519;-79
2023/01/20 09:04:41;;;;;;;10.03;5.20;;;-2.70;99.90;;;-1.87;100.00;98046.22;5042478;28;20977;-80
2023/01/20 09:07:12;;;;;;;9.50;5.73;;;-2.60;99.90;;;-1.83;100.00;98049.38;5041027;28;20471;-80
2023/01/20 09:09:42;;;;;;;11.30;5.50;;;-2.60;99.90;;;-1.81;100.00;98056.03;5040328;28;21042;-80
2023/01/20 09:12:13;;;;;;;9.73;5.90;;;-2.40;99.90;;;-1.79;100.00;98056.72;5037302;28;20501;-80
2023/01/20 09:14:44;;;;;;;7.47;4.53;;;-2.50;99.90;;;-1.78;100.00;98060.13;5039026;28;20499;-80
2023/01/20 09:17:13;;;;;;;13.50;5.20;;;-2.50;99.90;;;-1.79;100.00;98051.63;5039688;28;20561;-80
2023/01/20 09:19:43;;;;;;;8.80;5.47;;;-2.50;99.90;;;-1.77;100.00;98051.50;5039793;28;20453;-80
2023/01/20 09:22:14;;;;;;;8.27;5.23;;;-2.50;99.90;;;-1.72;100.00;98055.38;5040586;28;20469;-80
2023/01/20 09:24:45;;;;;;;7.50;5.50;;;-2.50;99.90;;;-1.70;100.00;98061.19;5040328;28;20461;-80
2023/01/20 09:27:16;;;;;;;6.40;4.70;;;-2.40;99.90;;;-1.65;100.00;98064.25;5040115;28;20472;-80
2023/01/20 09:29:47;;;;;;;8.70;5.40;;;-2.20;99.90;;;-1.62;100.00;98066.59;5040537;28;20461;-80
2023/01/20 09:32:17;;;;;;;7.97;5.80;;;-2.30;99.90;;;-1.58;100.00;98064.63;5039123;28;20977;-80
2023/01/20 09:34:47;;;;;;;9.30;5.03;;;-2.30;99.90;;;-1.55;100.00;98062.66;5039586;28;20499;-81
2023/01/20 09:46:10;;;;;;;6.90;4.80;;;-2.10;99.90;;;-1.36;100.00;98071.56;5039907;28;20538;-80
2023/01/20 09:54:50;;;;;;;9.57;5.33;;;-1.90;99.90;;;-1.17;100.00;98082.09;5038817;28;20530;-80
2023/01/20 09:57:27;;;;;;;9.73;4.53;;;-1.70;99.90;;;-1.10;100.00;98067.91;5038902;28;20862;-80
2023/01/20 10:00:06;;;;;;;9.60;5.33;;;-1.70;99.90;;;-1.01;100.00;98078.28;5036514;28;20614;-80
2023/01/20 10:02:37;;;;;;;10.53;5.47;;;-1.50;99.90;;;-0.94;100.00;98068.41;5038836;28;20460;-80
2023/01/20 10:05:14;;;;;;;7.20;4.80;;;-1.50;99.90;;;-0.86;100.00;98063.50;5038499;28;20525;-80
2023/01/20 10:07:55;;;;;;;11.67;5.23;;;-1.40;99.90;;;-0.78;100.00;98060.34;5039081;28;21068;-80
2023/01/20 10:10:32;;;;;;;9.23;4.83;;;-1.30;99.90;;;-0.70;100.00;98061.41;5040027;28;20472;-80
2023/01/20 10:13:13;;;;;;;6.50;4.57;;;-1.30;99.90;;;-0.61;100.00;98065.84;5039213;28;20540;-80
2023/01/20 10:15:51;;;;;;;9.60;5.67;;;-1.20;99.90;;;-0.53;100.00;98058.38;5040098;28;20554;-80
2023/01/20 10:18:27;;;;;;;10.73;4.60;;;-1.10;99.90;;;-0.42;100.00;98060.13;5039586;28;20458;-80
2023/01/20 10:21:06;;;;;;;9.10;4.47;;;-0.90;99.90;;;-0.35;100.00;98056.16;5039807;28;20469;-80
2023/01/20 10:23:43;;;;;;;5.40;3.47;;;-0.90;99.90;;;-0.25;100.00;98061.38;5040783;28;20533;-80
2023/01/20 10:26:19;;;;;;;5.83;3.37;;;-0.70;99.90;;;-0.16;100.00;98061.47;5040309;28;20505;-80
2023/01/20 10:28:58;;;;;;;4.43;3.30;;;-0.60;99.90;;;-0.10;100.00;98057.59;5040828;28;20989;-80
2023/01/20 10:31:33;;;;;;;6.63;3.77;;;-0.50;99.90;;;-0.04;100.00;98057.13;5039094;28;20469;-80
2023/01/20 10:34:13;;;;;;;8.40;4.40;;;-0.40;99.90;;;0.01;100.00;98052.44;5040773;28;21021;-80
2023/01/20 10:36:49;;;;;;;5.57;3.13;;;-0.30;99.90;;;0.05;100.00;98051.25;5041284;28;20460;-80
2023/01/20 10:39:32;;;;;;;6.20;4.10;;;-0.30;99.90;;;0.10;100.00;98051.72;5040120;28;20501;-80
2023/01/20 10:42:10;;;;;;;3.20;2.67;;;-0.30;99.90;;;0.15;100.00;98053.91;5038489;28;20481;-80
2023/01/20 10:44:39;;;;;;;6.17;3.13;;;-0.20;99.90;;;0.19;100.00;98050.97;5038551;28;20957;-81
2023/01/20 10:47:41;;;;;;;9.63;4.53;;;-0.20;99.90;;;0.24;100.00;98059.16;5039442;28;20478;-80
2023/01/20 10:50:43;;;;;;;5.50;3.57;;;-0.20;99.90;;;0.31;100.00;98055.13;5038952;28;20566;-79